sensor_id;sensor_type;location;lat;lon;timestamp;temperature;humidity
37974;DHT22;23796;51.458;7.000;2022-11-15T00:00:43;12.20;99.90
37974;DHT22;23796;51.458;7.000;2022-11-15T00:03:12;12.20;99.90
37974;DHT22;23796;51.458;7.000;2022-11-15T00:05:38;12.20;99.90
37974;DHT22;23796;51.458;7.000;2022-11-15T00:08:06;12.20;99.90
37974;DHT22;23796;51.458;7.000;2022-11-15T00:10:34;12.20;99.90
37974;DHT22;23796;51.458;7.000;2022-11-15T00:12:59;12.30;99.90
37974;DHT22;23796;51.458;7.000;2022-11-15T00:15:29;12.30;99.90
37974;DHT22;23796;51.458;7.000;2022-11-15T00:17:55;12.30;99.90
37974;DHT22;23796;51.458;7.000;2022-11-15T00:20:23;12.30;99.90
37974;DHT22;23796;51.458;7.000;2022-11-15T00:22:48;12.30;99.90
37974;DHT22;23796;51.458;7.000;2022-11-15T00:25:15;12.30;99.90
37974;DHT22;23796;51.458;7.000;2022-11-15T00:27:41;12.40;99.90
37974;DHT22;23796;51.458;7.000;2022-11-15T00:30:09;12.30;99.90
37974;DHT22;23796;51.458;7.000;2022-11-15T00:32:35;12.30;99.90
37974;DHT22;23796;51.458;7.000;2022-11-15T00:35:00;12.40;99.90
37974;DHT22;23796;51.458;7.000;2022-11-15T00:37:28;12.40;99.90
37974;DHT22;23796;51.458;7.000;2022-11-15T00:39:54;12.40;99.90
37974;DHT22;23796;51.458;7.000;2022-11-15T00:42:19;12.40;99.90
37974;DHT22;23796;51.458;7.000;2022-11-15T00:44:47;12.50;99.90
37974;DHT22;23796;51.458;7.000;2022-11-15T00:47:13;12.50;99.90
37974;DHT22;23796;51.458;7.000;2022-11-15T00:49:41;12.40;99.90
37974;DHT22;23796;51.458;7.000;2022-11-15T00:52:09;12.50;99.90
37974;DHT22;23796;51.458;7.000;2022-11-15T00:54:37;12.50;99.90
37974;DHT22;23796;51.458;7.000;2022-11-15T00:57:02;12.50;99.90
37974;DHT22;23796;51.458;7.000;2022-11-15T00:59:30;12.60;99.90
37974;DHT22;23796;51.458;7.000;2022-11-15T01:01:56;12.60;99.90
37974;DHT22;23796;51.458;7.000;2022-11-15T01:04:21;12.60;99.90
37974;DHT22;23796;51.458;7.000;2022-11-15T01:06:47;12.60;99.90
37974;DHT22;23796;51.458;7.000;2022-11-15T01:09:13;12.60;99.90
37974;DHT22;23796;51.458;7.000;2022-11-15T01:11:40;12.60;99.90
37974;DHT22;23796;51.458;7.000;2022-11-15T01:14:08;12.70;99.90
37974;DHT22;23796;51.458;7.000;2022-11-15T01:16:36;12.70;99.90
37974;DHT22;23796;51.458;7.000;2022-11-15T01:19:02;12.70;99.90
37974;DHT22;23796;51.458;7.000;2022-11-15T01:21:28;12.70;99.90
37974;DHT22;23796;51.458;7.000;2022-11-15T01:24:00;12.70;99.90
37974;DHT22;23796;51.458;7.000;2022-11-15T01:26:28;12.70;99.90
37974;DHT22;23796;51.458;7.000;2022-11-15T01:28:53;12.80;99.90
37974;DHT22;23796;51.458;7.000;2022-11-15T01:31:24;12.80;99.90
37974;DHT22;23796;51.458;7.000;2022-11-15T01:33:54;12.80;99.90
37974;DHT22;23796;51.458;7.000;2022-11-15T01:36:22;12.80;99.90
37974;DHT22;23796;51.458;7.000;2022-11-15T01:38:55;12.80;99.90
37974;DHT22;23796;51.458;7.000;2022-11-15T01:41:30;12.80;99.90
37974;DHT22;23796;51.458;7.000;2022-11-15T01:47:02;12.80;99.90
37974;DHT22;23796;51.458;7.000;2022-11-15T01:49:30;12.60;99.90
37974;DHT22;23796;51.458;7.000;2022-11-15T01:51:58;12.60;99.90
37974;DHT22;23796;51.458;7.000;2022-11-15T01:54:27;12.60;99.90
37974;DHT22;23796;51.458;7.000;2022-11-15T01:57:03;12.50;99.90
37974;DHT22;23796;51.458;7.000;2022-11-15T01:59:30;12.60;99.90
37974;DHT22;23796;51.458;7.000;2022-11-15T02:02:01;12.60;99.90
37974;DHT22;23796;51.458;7.000;2022-11-15T02:04:31;12.70;99.90
37974;DHT22;23796;51.458;7.000;2022-11-15T02:06:58;12.70;99.90
37974;DHT22;23796;51.458;7.000;2022-11-15T02:09:27;12.80;99.90
37974;DHT22;23796;51.458;7.000;2022-11-15T02:11:58;12.80;99.90
37974;DHT22;23796;51.458;7.000;2022-11-15T02:14:29;12.70;99.90
37974;DHT22;23796;51.458;7.000;2022-11-15T02:36:24;12.80;99.90
37974;DHT22;23796;51.458;7.000;2022-11-15T02:42:03;12.70;99.90
37974;DHT22;23796;51.458;7.000;2022-11-15T02:44:53;12.70;99.90
37974;DHT22;23796;51.458;7.000;2022-11-15T02:47:22;12.80;99.90
37974;DHT22;23796;51.458;7.000;2022-11-15T02:49:52;12.80;99.90
37974;DHT22;23796;51.458;7.000;2022-11-15T02:52:21;12.70;99.90
37974;DHT22;23796;51.458;7.000;2022-11-15T02:54:58;12.70;99.90
37974;DHT22;23796;51.458;7.000;2022-11-15T02:57:39;12.80;99.90
37974;DHT22;23796;51.458;7.000;2022-11-15T03:00:12;12.90;99.90
37974;DHT22;23796;51.458;7.000;2022-11-15T03:05:18;12.90;99.90
37974;DHT22;23796;51.458;7.000;2022-11-15T03:07:59;12.90;99.90
37974;DHT22;23796;51.458;7.000;2022-11-15T03:13:54;12.90;99.90
37974;DHT22;23796;51.458;7.000;2022-11-15T03:16:02;13.00;99.90
37974;DHT22;23796;51.458;7.000;2022-11-15T03:18:32;13.00;99.90
37974;DHT22;23796;51.458;7.000;2022-11-15T03:21:01;13.10;99.90
37974;DHT22;23796;51.458;7.000;2022-11-15T03:23:31;13.10;99.90
37974;DHT22;23796;51.458;7.000;2022-11-15T03:26:00;13.10;99.90
37974;DHT22;23796;51.458;7.000;2022-11-15T03:29:04;13.10;99.90
37974;DHT22;23796;51.458;7.000;2022-11-15T03:31:37;13.10;99.90
37974;DHT22;23796;51.458;7.000;2022-11-15T03:34:28;13.10;99.90
37974;DHT22;23796;51.458;7.000;2022-11-15T03:36:57;13.10;99.90
37974;DHT22;23796;51.458;7.000;2022-11-15T03:39:25;13.10;99.90
37974;DHT22;23796;51.458;7.000;2022-11-15T03:45:08;13.20;99.90
37974;DHT22;23796;51.458;7.000;2022-11-15T03:47:46;13.20;99.90
37974;DHT22;23796;51.458;7.000;2022-11-15T03:50:18;13.20;99.90
37974;DHT22;23796;51.458;7.000;2022-11-15T03:52:46;13.30;99.90
37974;DHT22;23796;51.458;7.000;2022-11-15T03:55:15;13.20;99.90
37974;DHT22;23796;51.458;7.000;2022-11-15T03:57:47;13.30;99.90
37974;DHT22;23796;51.458;7.000;2022-11-15T04:00:13;13.30;99.90
37974;DHT22;23796;51.458;7.000;2022-11-15T04:02:39;13.30;99.90
37974;DHT22;23796;51.458;7.000;2022-11-15T04:05:05;13.30;99.90
37974;DHT22;23796;51.458;7.000;2022-11-15T04:07:30;13.30;99.90
37974;DHT22;23796;51.458;7.000;2022-11-15T04:10:01;13.30;99.90
37974;DHT22;23796;51.458;7.000;2022-11-15T04:12:37;13.30;99.90
37974;DHT22;23796;51.458;7.000;2022-11-15T04:15:07;13.40;99.90
37974;DHT22;23796;51.458;7.000;2022-11-15T04:20:17;13.40;99.90
37974;DHT22;23796;51.458;7.000;2022-11-15T04:23:09;13.40;99.90
37974;DHT22;23796;51.458;7.000;2022-11-15T04:25:55;13.40;99.90
37974;DHT22;23796;51.458;7.000;2022-11-15T04:28:26;13.40;99.90
37974;DHT22;23796;51.458;7.000;2022-11-15T04:30:54;13.40;99.90
37974;DHT22;23796;51.458;7.000;2022-11-15T04:33:21;13.50;99.90
37974;DHT22;23796;51.458;7.000;2022-11-15T04:35:46;13.40;99.90
37974;DHT22;23796;51.458;7.000;2022-11-15T04:38:32;13.50;99.90
37974;DHT22;23796;51.458;7.000;2022-11-15T04:40:58;13.40;99.90
37974;DHT22;23796;51.458;7.000;2022-11-15T04:43:26;13.50;99.90
37974;DHT22;23796;51.458;7.000;2022-11-15T04:45:52;13.40;99.90
37974;DHT22;23796;51.458;7.000;2022-11-15T04:48:19;13.40;99.90
37974;DHT22;23796;51.458;7.000;2022-11-15T04:50:49;13.50;99.90
37974;DHT22;23796;51.458;7.000;2022-11-15T04:53:15;13.50;99.90
37974;DHT22;23796;51.458;7.000;2022-11-15T04:55:45;13.50;99.90
37974;DHT22;23796;51.458;7.000;2022-11-15T04:58:11;13.50;99.90
37974;DHT22;23796;51.458;7.000;2022-11-15T05:00:36;13.50;99.90
37974;DHT22;23796;51.458;7.000;2022-11-15T05:03:02;13.50;99.90
37974;DHT22;23796;51.458;7.000;2022-11-15T05:05:49;13.40;99.90
37974;DHT22;23796;51.458;7.000;2022-11-15T05:08:17;13.50;99.90
37974;DHT22;23796;51.458;7.000;2022-11-15T05:10:42;13.50;99.90
37974;DHT22;23796;51.458;7.000;2022-11-15T05:13:08;13.50;99.90
37974;DHT22;23796;51.458;7.000;2022-11-15T05:15:33;13.50;99.90
37974;DHT22;23796;51.458;7.000;2022-11-15T05:18:01;13.50;99.90
37974;DHT22;23796;51.458;7.000;2022-11-15T05:20:27;13.50;99.90
37974;DHT22;23796;51.458;7.000;2022-11-15T05:22:55;13.40;99.90
37974;DHT22;23796;51.458;7.000;2022-11-15T05:25:23;13.40;99.90
37974;DHT22;23796;51.458;7.000;2022-11-15T05:27:48;13.30;99.90
37974;DHT22;23796;51.458;7.000;2022-11-15T05:30:17;13.40;99.90
37974;DHT22;23796;51.458;7.000;2022-11-15T05:32:46;13.30;99.90
37974;DHT22;23796;51.458;7.000;2022-11-15T05:35:34;13.30;99.90
37974;DHT22;23796;51.458;7.000;2022-11-15T05:38:02;13.30;99.90
37974;DHT22;23796;51.458;7.000;2022-11-15T05:40:33;13.30;99.90
37974;DHT22;23796;51.458;7.000;2022-11-15T05:43:00;13.20;99.90
37974;DHT22;23796;51.458;7.000;2022-11-15T05:45:26;13.10;99.90
37974;DHT22;23796;51.458;7.000;2022-11-15T05:47:55;13.00;99.90
37974;DHT22;23796;51.458;7.000;2022-11-15T05:50:22;13.10;99.90
37974;DHT22;23796;51.458;7.000;2022-11-15T05:52:51;13.10;99.90
37974;DHT22;23796;51.458;7.000;2022-11-15T05:55:17;13.10;99.90
37974;DHT22;23796;51.458;7.000;2022-11-15T05:57:43;13.10;99.90
37974;DHT22;23796;51.458;7.000;2022-11-15T06:02:43;13.10;99.90
37974;DHT22;23796;51.458;7.000;2022-11-15T06:05:08;13.10;99.90
37974;DHT22;23796;51.458;7.000;2022-11-15T06:07:38;13.10;99.90
37974;DHT22;23796;51.458;7.000;2022-11-15T06:10:04;13.10;99.90
37974;DHT22;23796;51.458;7.000;2022-11-15T06:12:32;13.20;99.90
37974;DHT22;23796;51.458;7.000;2022-11-15T06:15:03;13.10;99.90
37974;DHT22;23796;51.458;7.000;2022-11-15T06:17:31;13.10;99.90
37974;DHT22;23796;51.458;7.000;2022-11-15T06:19:59;13.10;99.90
37974;DHT22;23796;51.458;7.000;2022-11-15T06:22:24;13.10;99.90
37974;DHT22;23796;51.458;7.000;2022-11-15T06:24:50;13.10;99.90
37974;DHT22;23796;51.458;7.000;2022-11-15T06:27:15;13.10;99.90
37974;DHT22;23796;51.458;7.000;2022-11-15T06:29:41;13.10;99.90
37974;DHT22;23796;51.458;7.000;2022-11-15T06:32:07;13.20;99.90
37974;DHT22;23796;51.458;7.000;2022-11-15T06:34:35;13.10;99.90
37974;DHT22;23796;51.458;7.000;2022-11-15T06:37:02;13.20;99.90
37974;DHT22;23796;51.458;7.000;2022-11-15T06:39:29;13.20;99.90
37974;DHT22;23796;51.458;7.000;2022-11-15T06:41:55;13.20;99.90
37974;DHT22;23796;51.458;7.000;2022-11-15T06:44:21;13.20;99.90
37974;DHT22;23796;51.458;7.000;2022-11-15T06:46:46;13.20;99.90
37974;DHT22;23796;51.458;7.000;2022-11-15T06:49:14;13.20;99.90
37974;DHT22;23796;51.458;7.000;2022-11-15T06:51:40;13.20;99.90
37974;DHT22;23796;51.458;7.000;2022-11-15T06:54:08;13.20;99.90
37974;DHT22;23796;51.458;7.000;2022-11-15T06:56:33;13.20;99.90
37974;DHT22;23796;51.458;7.000;2022-11-15T06:59:01;13.20;99.90
37974;DHT22;23796;51.458;7.000;2022-11-15T07:01:27;13.20;99.90
37974;DHT22;23796;51.458;7.000;2022-11-15T07:03:52;13.20;99.90
37974;DHT22;23796;51.458;7.000;2022-11-15T07:06:21;13.20;99.90
37974;DHT22;23796;51.458;7.000;2022-11-15T07:08:48;13.20;99.90
37974;DHT22;23796;51.458;7.000;2022-11-15T07:11:14;13.10;99.90
37974;DHT22;23796;51.458;7.000;2022-11-15T07:13:42;13.00;99.90
37974;DHT22;23796;51.458;7.000;2022-11-15T07:16:09;12.90;99.90
37974;DHT22;23796;51.458;7.000;2022-11-15T07:18:39;12.90;99.90
37974;DHT22;23796;51.458;7.000;2022-11-15T07:21:09;13.00;99.90
37974;DHT22;23796;51.458;7.000;2022-11-15T07:23:39;13.10;99.90
37974;DHT22;23796;51.458;7.000;2022-11-15T07:26:05;13.10;99.90
37974;DHT22;23796;51.458;7.000;2022-11-15T07:28:30;13.10;99.90
37974;DHT22;23796;51.458;7.000;2022-11-15T07:30:56;13.10;99.90
37974;DHT22;23796;51.458;7.000;2022-11-15T07:33:21;13.10;99.90
37974;DHT22;23796;51.458;7.000;2022-11-15T07:35:47;13.10;99.90
37974;DHT22;23796;51.458;7.000;2022-11-15T07:38:18;13.10;99.90
37974;DHT22;23796;51.458;7.000;2022-11-15T07:40:55;13.10;99.90
37974;DHT22;23796;51.458;7.000;2022-11-15T07:43:20;13.10;99.90
37974;DHT22;23796;51.458;7.000;2022-11-15T07:45:46;13.00;99.90
37974;DHT22;23796;51.458;7.000;2022-11-15T07:48:12;12.90;99.90
37974;DHT22;23796;51.458;7.000;2022-11-15T07:50:40;12.90;99.90
37974;DHT22;23796;51.458;7.000;2022-11-15T07:53:07;12.90;99.90
37974;DHT22;23796;51.458;7.000;2022-11-15T07:55:36;12.80;99.90
37974;DHT22;23796;51.458;7.000;2022-11-15T07:58:06;12.90;99.90
37974;DHT22;23796;51.458;7.000;2022-11-15T08:00:33;12.90;99.90
37974;DHT22;23796;51.458;7.000;2022-11-15T08:03:12;12.90;99.90
37974;DHT22;23796;51.458;7.000;2022-11-15T08:05:43;13.00;99.90
37974;DHT22;23796;51.458;7.000;2022-11-15T08:08:17;13.10;99.90
37974;DHT22;23796;51.458;7.000;2022-11-15T08:10:43;13.20;99.90
37974;DHT22;23796;51.458;7.000;2022-11-15T08:13:10;13.20;99.90
37974;DHT22;23796;51.458;7.000;2022-11-15T08:15:37;13.30;99.90
37974;DHT22;23796;51.458;7.000;2022-11-15T08:18:09;13.30;99.90
37974;DHT22;23796;51.458;7.000;2022-11-15T08:20:35;13.40;99.90
37974;DHT22;23796;51.458;7.000;2022-11-15T08:23:02;13.40;99.90
37974;DHT22;23796;51.458;7.000;2022-11-15T08:25:29;13.50;99.90
37974;DHT22;23796;51.458;7.000;2022-11-15T08:27:58;13.60;99.90
37974;DHT22;23796;51.458;7.000;2022-11-15T08:30:24;13.50;99.90
37974;DHT22;23796;51.458;7.000;2022-11-15T08:32:51;13.60;99.90
37974;DHT22;23796;51.458;7.000;2022-11-15T08:35:17;13.60;99.90
37974;DHT22;23796;51.458;7.000;2022-11-15T08:37:43;13.60;99.90
37974;DHT22;23796;51.458;7.000;2022-11-15T08:40:09;13.70;99.90
37974;DHT22;23796;51.458;7.000;2022-11-15T08:42:35;13.70;99.90
37974;DHT22;23796;51.458;7.000;2022-11-15T08:45:01;13.80;99.90
37974;DHT22;23796;51.458;7.000;2022-11-15T08:47:27;13.80;99.90
37974;DHT22;23796;51.458;7.000;2022-11-15T08:49:55;13.90;99.90
37974;DHT22;23796;51.458;7.000;2022-11-15T08:52:21;13.90;99.90
37974;DHT22;23796;51.458;7.000;2022-11-15T08:54:47;13.90;99.90
37974;DHT22;23796;51.458;7.000;2022-11-15T08:57:13;13.90;99.90
37974;DHT22;23796;51.458;7.000;2022-11-15T08:59:38;14.00;99.90
37974;DHT22;23796;51.458;7.000;2022-11-15T09:02:04;14.00;99.90
37974;DHT22;23796;51.458;7.000;2022-11-15T09:04:30;14.00;99.90
37974;DHT22;23796;51.458;7.000;2022-11-15T09:06:56;14.10;99.90
37974;DHT22;23796;51.458;7.000;2022-11-15T09:09:22;14.10;99.90
37974;DHT22;23796;51.458;7.000;2022-11-15T09:11:47;14.00;99.90
37974;DHT22;23796;51.458;7.000;2022-11-15T09:14:16;13.90;99.90
37974;DHT22;23796;51.458;7.000;2022-11-15T09:16:46;13.80;99.90
37974;DHT22;23796;51.458;7.000;2022-11-15T09:19:11;13.70;99.90
37974;DHT22;23796;51.458;7.000;2022-11-15T09:21:40;13.60;99.90
37974;DHT22;23796;51.458;7.000;2022-11-15T09:24:05;13.60;99.90
37974;DHT22;23796;51.458;7.000;2022-11-15T09:26:34;13.60;99.90
37974;DHT22;23796;51.458;7.000;2022-11-15T09:28:59;13.50;99.90
37974;DHT22;23796;51.458;7.000;2022-11-15T09:31:26;13.50;99.90
37974;DHT22;23796;51.458;7.000;2022-11-15T09:33:52;13.50;99.90
37974;DHT22;23796;51.458;7.000;2022-11-15T09:36:18;13.50;99.90
37974;DHT22;23796;51.458;7.000;2022-11-15T09:38:43;13.60;99.90
37974;DHT22;23796;51.458;7.000;2022-11-15T09:46:26;13.50;99.90
37974;DHT22;23796;51.458;7.000;2022-11-15T09:48:57;13.50;99.90
37974;DHT22;23796;51.458;7.000;2022-11-15T09:51:35;13.50;99.90
37974;DHT22;23796;51.458;7.000;2022-11-15T09:56:46;13.50;99.90
37974;DHT22;23796;51.458;7.000;2022-11-15T09:59:40;13.50;99.90
37974;DHT22;23796;51.458;7.000;2022-11-15T10:04:56;13.40;99.90
37974;DHT22;23796;51.458;7.000;2022-11-15T10:10:38;13.40;99.90
37974;DHT22;23796;51.458;7.000;2022-11-15T10:13:06;13.40;99.90
37974;DHT22;23796;51.458;7.000;2022-11-15T10:15:35;13.40;99.90
37974;DHT22;23796;51.458;7.000;2022-11-15T10:20:55;13.30;99.90
37974;DHT22;23796;51.458;7.000;2022-11-15T10:23:22;13.40;99.90
37974;DHT22;23796;51.458;7.000;2022-11-15T10:25:55;13.30;99.90
37974;DHT22;23796;51.458;7.000;2022-11-15T10:28:25;13.40;99.90
37974;DHT22;23796;51.458;7.000;2022-11-15T10:30:57;13.40;99.90
37974;DHT22;23796;51.458;7.000;2022-11-15T10:46:35;13.40;99.90
37974;DHT22;23796;51.458;7.000;2022-11-15T10:54:39;13.70;99.90
37974;DHT22;23796;51.458;7.000;2022-11-15T10:57:21;13.80;99.90
37974;DHT22;23796;51.458;7.000;2022-11-15T11:00:03;13.80;99.90
37974;DHT22;23796;51.458;7.000;2022-11-15T11:02:44;14.20;99.90
37974;DHT22;23796;51.458;7.000;2022-11-15T11:05:43;14.40;99.90
37974;DHT22;23796;51.458;7.000;2022-11-15T11:11:00;14.70;99.90
37974;DHT22;23796;51.458;7.000;2022-11-15T11:13:34;15.00;99.90
37974;DHT22;23796;51.458;7.000;2022-11-15T11:16:07;15.60;99.90
37974;DHT22;23796;51.458;7.000;2022-11-15T11:18:43;16.20;99.90
37974;DHT22;23796;51.458;7.000;2022-11-15T11:21:15;16.40;99.90
37974;DHT22;23796;51.458;7.000;2022-11-15T11:29:06;16.00;99.90
37974;DHT22;23796;51.458;7.000;2022-11-15T11:31:49;16.80;99.90
37974;DHT22;23796;51.458;7.000;2022-11-15T11:37:59;16.20;99.90
37974;DHT22;23796;51.458;7.000;2022-11-15T11:40:44;15.70;99.90
37974;DHT22;23796;51.458;7.000;2022-11-15T11:43:55;15.50;99.90
37974;DHT22;23796;51.458;7.000;2022-11-15T11:51:56;14.90;99.90
37974;DHT22;23796;51.458;7.000;2022-11-15T11:54:35;14.80;99.90
37974;DHT22;23796;51.458;7.000;2022-11-15T11:57:47;14.70;99.90
37974;DHT22;23796;51.458;7.000;2022-11-15T12:00:23;14.60;99.90
37974;DHT22;23796;51.458;7.000;2022-11-15T12:03:29;14.50;99.90
37974;DHT22;23796;51.458;7.000;2022-11-15T12:06:02;14.50;99.90
37974;DHT22;23796;51.458;7.000;2022-11-15T12:08:46;14.50;99.90
37974;DHT22;23796;51.458;7.000;2022-11-15T12:14:05;14.40;99.90
37974;DHT22;23796;51.458;7.000;2022-11-15T12:16:34;14.40;99.90
37974;DHT22;23796;51.458;7.000;2022-11-15T12:19:02;14.30;99.90
37974;DHT22;23796;51.458;7.000;2022-11-15T12:24:39;14.30;99.90
37974;DHT22;23796;51.458;7.000;2022-11-15T12:29:54;14.20;99.90
37974;DHT22;23796;51.458;7.000;2022-11-15T12:32:31;14.20;99.90
37974;DHT22;23796;51.458;7.000;2022-11-15T12:35:02;14.20;99.90
37974;DHT22;23796;51.458;7.000;2022-11-15T12:40:29;14.20;99.90
37974;DHT22;23796;51.458;7.000;2022-11-15T12:58:58;14.10;99.90
37974;DHT22;23796;51.458;7.000;2022-11-15T13:06:50;14.20;99.90
37974;DHT22;23796;51.458;7.000;2022-11-15T13:11:58;14.20;99.90
37974;DHT22;23796;51.458;7.000;2022-11-15T13:14:47;14.20;99.90
37974;DHT22;23796;51.458;7.000;2022-11-15T13:19:47;14.20;99.90
37974;DHT22;23796;51.458;7.000;2022-11-15T13:22:13;14.20;99.90
37974;DHT22;23796;51.458;7.000;2022-11-15T13:25:00;14.20;99.90
37974;DHT22;23796;51.458;7.000;2022-11-15T13:27:26;14.20;99.90
37974;DHT22;23796;51.458;7.000;2022-11-15T13:29:53;14.30;99.90
37974;DHT22;23796;51.458;7.000;2022-11-15T13:32:22;14.30;99.90
37974;DHT22;23796;51.458;7.000;2022-11-15T13:34:50;14.40;99.90
37974;DHT22;23796;51.458;7.000;2022-11-15T13:39:47;14.40;99.90
37974;DHT22;23796;51.458;7.000;2022-11-15T13:42:20;14.40;99.90
37974;DHT22;23796;51.458;7.000;2022-11-15T13:44:56;14.50;99.90
37974;DHT22;23796;51.458;7.000;2022-11-15T13:47:21;14.50;99.90
37974;DHT22;23796;51.458;7.000;2022-11-15T13:49:50;14.60;99.90
37974;DHT22;23796;51.458;7.000;2022-11-15T13:52:15;14.60;99.90
37974;DHT22;23796;51.458;7.000;2022-11-15T13:57:57;14.70;99.90
37974;DHT22;23796;51.458;7.000;2022-11-15T14:03:06;14.70;99.90
37974;DHT22;23796;51.458;7.000;2022-11-15T14:05:34;14.70;99.90
37974;DHT22;23796;51.458;7.000;2022-11-15T14:10:43;14.80;99.90
37974;DHT22;23796;51.458;7.000;2022-11-15T14:13:28;14.80;99.90
37974;DHT22;23796;51.458;7.000;2022-11-15T14:15:57;14.80;99.90
37974;DHT22;23796;51.458;7.000;2022-11-15T14:18:44;14.80;99.90
37974;DHT22;23796;51.458;7.000;2022-11-15T14:21:10;14.80;99.90
37974;DHT22;23796;51.458;7.000;2022-11-15T14:23:36;14.80;99.90
37974;DHT22;23796;51.458;7.000;2022-11-15T14:26:04;14.80;99.90
37974;DHT22;23796;51.458;7.000;2022-11-15T14:28:32;14.80;99.90
37974;DHT22;23796;51.458;7.000;2022-11-15T14:30:59;14.90;99.90
37974;DHT22;23796;51.458;7.000;2022-11-15T14:33:45;14.90;99.90
37974;DHT22;23796;51.458;7.000;2022-11-15T14:36:16;14.90;99.90
37974;DHT22;23796;51.458;7.000;2022-11-15T14:38:43;14.90;99.90
37974;DHT22;23796;51.458;7.000;2022-11-15T14:41:22;14.80;99.90
37974;DHT22;23796;51.458;7.000;2022-11-15T14:43:51;14.70;99.90
37974;DHT22;23796;51.458;7.000;2022-11-15T14:46:17;14.70;99.90
37974;DHT22;23796;51.458;7.000;2022-11-15T14:48:43;14.60;99.90
37974;DHT22;23796;51.458;7.000;2022-11-15T14:51:17;14.60;99.90
37974;DHT22;23796;51.458;7.000;2022-11-15T14:53:43;14.60;99.90
37974;DHT22;23796;51.458;7.000;2022-11-15T14:56:15;14.60;99.90
37974;DHT22;23796;51.458;7.000;2022-11-15T14:58:42;14.50;99.90
37974;DHT22;23796;51.458;7.000;2022-11-15T15:01:26;14.60;99.90
37974;DHT22;23796;51.458;7.000;2022-11-15T15:03:52;14.60;99.90
37974;DHT22;23796;51.458;7.000;2022-11-15T15:06:23;14.50;99.90
37974;DHT22;23796;51.458;7.000;2022-11-15T15:08:49;14.40;99.90
37974;DHT22;23796;51.458;7.000;2022-11-15T15:13:47;14.30;99.90
37974;DHT22;23796;51.458;7.000;2022-11-15T15:16:13;14.30;99.90
37974;DHT22;23796;51.458;7.000;2022-11-15T15:18:38;14.40;99.90
37974;DHT22;23796;51.458;7.000;2022-11-15T15:21:29;14.40;99.90
37974;DHT22;23796;51.458;7.000;2022-11-15T15:23:56;14.40;99.90
37974;DHT22;23796;51.458;7.000;2022-11-15T15:26:25;14.40;99.90
37974;DHT22;23796;51.458;7.000;2022-11-15T15:28:55;14.30;99.90
37974;DHT22;23796;51.458;7.000;2022-11-15T15:31:21;14.30;99.90
37974;DHT22;23796;51.458;7.000;2022-11-15T15:33:46;14.30;99.90
37974;DHT22;23796;51.458;7.000;2022-11-15T15:36:13;14.30;99.90
37974;DHT22;23796;51.458;7.000;2022-11-15T15:38:39;14.30;99.90
37974;DHT22;23796;51.458;7.000;2022-11-15T15:41:14;14.30;99.90
37974;DHT22;23796;51.458;7.000;2022-11-15T15:43:43;14.30;99.90
37974;DHT22;23796;51.458;7.000;2022-11-15T15:46:15;14.30;99.90
37974;DHT22;23796;51.458;7.000;2022-11-15T15:48:41;14.30;99.90
37974;DHT22;23796;51.458;7.000;2022-11-15T15:51:07;14.20;99.90
37974;DHT22;23796;51.458;7.000;2022-11-15T15:53:35;14.20;99.90
37974;DHT22;23796;51.458;7.000;2022-11-15T15:56:03;14.20;99.90
37974;DHT22;23796;51.458;7.000;2022-11-15T15:58:33;14.20;99.90
37974;DHT22;23796;51.458;7.000;2022-11-15T16:00:59;14.20;99.90
37974;DHT22;23796;51.458;7.000;2022-11-15T16:03:27;14.20;99.90
37974;DHT22;23796;51.458;7.000;2022-11-15T16:06:02;14.20;99.90
37974;DHT22;23796;51.458;7.000;2022-11-15T16:08:29;14.20;99.90
37974;DHT22;23796;51.458;7.000;2022-11-15T16:10:57;14.10;99.90
37974;DHT22;23796;51.458;7.000;2022-11-15T16:13:25;14.10;99.90
37974;DHT22;23796;51.458;7.000;2022-11-15T16:15:53;14.10;99.90
37974;DHT22;23796;51.458;7.000;2022-11-15T16:18:19;14.10;99.90
37974;DHT22;23796;51.458;7.000;2022-11-15T16:20:48;14.10;99.90
37974;DHT22;23796;51.458;7.000;2022-11-15T16:23:22;14.10;99.90
37974;DHT22;23796;51.458;7.000;2022-11-15T16:25:53;14.10;99.90
37974;DHT22;23796;51.458;7.000;2022-11-15T16:28:23;14.10;99.90
37974;DHT22;23796;51.458;7.000;2022-11-15T16:30:59;14.10;99.90
37974;DHT22;23796;51.458;7.000;2022-11-15T16:33:25;14.10;99.90
37974;DHT22;23796;51.458;7.000;2022-11-15T16:35:53;14.10;99.90
37974;DHT22;23796;51.458;7.000;2022-11-15T16:38:21;14.20;99.90
37974;DHT22;23796;51.458;7.000;2022-11-15T16:40:50;14.10;99.90
37974;DHT22;23796;51.458;7.000;2022-11-15T16:43:18;14.10;99.90
37974;DHT22;23796;51.458;7.000;2022-11-15T16:45:46;14.20;99.90
37974;DHT22;23796;51.458;7.000;2022-11-15T16:48:30;14.20;99.90
37974;DHT22;23796;51.458;7.000;2022-11-15T16:50:59;14.20;99.90
37974;DHT22;23796;51.458;7.000;2022-11-15T16:53:31;14.20;99.90
37974;DHT22;23796;51.458;7.000;2022-11-15T16:55:57;14.20;99.90
37974;DHT22;23796;51.458;7.000;2022-11-15T16:58:23;14.20;99.90
37974;DHT22;23796;51.458;7.000;2022-11-15T17:00:58;14.20;99.90
37974;DHT22;23796;51.458;7.000;2022-11-15T17:03:26;14.20;99.90
37974;DHT22;23796;51.458;7.000;2022-11-15T17:05:57;14.20;99.90
37974;DHT22;23796;51.458;7.000;2022-11-15T17:08:29;14.20;99.90
37974;DHT22;23796;51.458;7.000;2022-11-15T17:10:54;14.20;99.90
37974;DHT22;23796;51.458;7.000;2022-11-15T17:13:20;14.20;99.90
37974;DHT22;23796;51.458;7.000;2022-11-15T17:15:45;14.20;99.90
37974;DHT22;23796;51.458;7.000;2022-11-15T17:18:14;14.20;99.90
37974;DHT22;23796;51.458;7.000;2022-11-15T17:20:40;14.20;99.90
37974;DHT22;23796;51.458;7.000;2022-11-15T17:23:11;14.20;99.90
37974;DHT22;23796;51.458;7.000;2022-11-15T17:25:40;14.20;99.90
37974;DHT22;23796;51.458;7.000;2022-11-15T17:28:08;14.20;99.90
37974;DHT22;23796;51.458;7.000;2022-11-15T17:30:34;14.20;99.90
37974;DHT22;23796;51.458;7.000;2022-11-15T17:33:00;14.20;99.90
37974;DHT22;23796;51.458;7.000;2022-11-15T17:35:25;14.20;99.90
37974;DHT22;23796;51.458;7.000;2022-11-15T17:37:53;14.30;99.90
37974;DHT22;23796;51.458;7.000;2022-11-15T17:40:21;14.20;99.90
37974;DHT22;23796;51.458;7.000;2022-11-15T17:42:49;14.30;99.90
37974;DHT22;23796;51.458;7.000;2022-11-15T17:45:21;14.30;99.90
37974;DHT22;23796;51.458;7.000;2022-11-15T17:47:46;14.30;99.90
37974;DHT22;23796;51.458;7.000;2022-11-15T17:50:12;14.30;99.90
37974;DHT22;23796;51.458;7.000;2022-11-15T17:52:38;14.30;99.90
37974;DHT22;23796;51.458;7.000;2022-11-15T17:55:04;14.30;99.90
37974;DHT22;23796;51.458;7.000;2022-11-15T17:57:29;14.40;99.90
37974;DHT22;23796;51.458;7.000;2022-11-15T17:59:55;14.30;99.90
37974;DHT22;23796;51.458;7.000;2022-11-15T18:02:23;14.40;99.90
37974;DHT22;23796;51.458;7.000;2022-11-15T18:04:48;14.40;99.90
37974;DHT22;23796;51.458;7.000;2022-11-15T18:07:14;14.40;99.90
37974;DHT22;23796;51.458;7.000;2022-11-15T18:09:40;14.40;99.90